createdAt,value
2018-07-28T00:02:03.069Z,8.10
2018-07-28T00:04:31.828Z,10.73
2018-07-28T00:07:00.558Z,29.97
2018-07-28T00:09:29.301Z,31.97
2018-07-28T00:11:58.034Z,15.73
2018-07-28T00:14:26.754Z,10.80
2018-07-28T00:16:55.466Z,10.80
2018-07-28T00:19:24.224Z,9.93
2018-07-28T00:21:53.061Z,12.07
2018-07-28T00:24:21.822Z,14.43
2018-07-28T00:26:50.591Z,10.93
2018-07-28T00:29:19.335Z,22.10
2018-07-28T00:31:48.067Z,13.30
2018-07-28T00:34:16.918Z,20.83
2018-07-28T00:36:45.698Z,17.97
2018-07-28T00:39:14.951Z,10.73
2018-07-28T00:41:43.930Z,24.23
2018-07-28T00:44:12.678Z,13.37
2018-07-28T00:46:41.465Z,10.30
2018-07-28T00:49:10.274Z,13.47
2018-07-28T00:51:38.998Z,11.47
2018-07-28T00:54:07.842Z,10.80
2018-07-28T00:56:36.597Z,12.33
2018-07-28T00:59:05.354Z,10.37
2018-07-28T01:01:34.084Z,10.27
2018-07-28T01:04:02.873Z,13.03
2018-07-28T01:06:31.645Z,11.70
2018-07-28T01:09:00.400Z,12.03
2018-07-28T01:11:29.289Z,9.33
2018-07-28T01:13:58.053Z,11.70
2018-07-28T01:16:26.799Z,11.73
2018-07-28T01:18:55.677Z,10.70
2018-07-28T01:21:24.413Z,10.70
2018-07-28T01:23:53.160Z,9.43
2018-07-28T01:26:21.900Z,8.30
2018-07-28T01:28:55.550Z,9.33
2018-07-28T01:31:24.304Z,8.20
2018-07-28T01:33:53.165Z,9.97
2018-07-28T01:36:21.914Z,10.70
2018-07-28T01:38:50.674Z,8.17
2018-07-28T01:41:19.473Z,8.63
2018-07-28T01:43:48.234Z,10.37
2018-07-28T01:46:16.971Z,8.87
2018-07-28T01:48:45.801Z,8.00
2018-07-28T01:51:14.529Z,9.67
2018-07-28T01:53:43.339Z,9.13
2018-07-28T01:56:12.085Z,8.53
2018-07-28T01:58:40.803Z,8.70
2018-07-28T02:01:09.551Z,10.13
2018-07-28T02:03:38.318Z,8.73
2018-07-28T02:06:07.167Z,11.63
2018-07-28T02:08:35.909Z,9.20
2018-07-28T02:11:04.693Z,10.00
2018-07-28T02:13:33.446Z,9.60
2018-07-28T02:16:02.169Z,12.27
2018-07-28T02:18:30.919Z,10.33
2018-07-28T02:20:59.655Z,11.77
2018-07-28T02:23:28.372Z,12.53
2018-07-28T02:25:57.086Z,9.70
2018-07-28T02:28:25.800Z,11.30
2018-07-28T02:30:54.575Z,10.10
2018-07-28T02:33:23.302Z,9.27
2018-07-28T02:35:52.151Z,9.50
2018-07-28T02:38:20.941Z,10.17
2018-07-28T02:40:50.049Z,9.30
2018-07-28T02:43:18.897Z,9.80
2018-07-28T02:45:47.606Z,10.73
2018-07-28T02:48:16.429Z,10.90
2018-07-28T02:50:45.157Z,10.17
2018-07-28T02:53:13.908Z,10.60
2018-07-28T02:55:42.766Z,11.77
2018-07-28T02:58:11.497Z,10.20
2018-07-28T03:00:40.214Z,11.67
2018-07-28T03:03:08.954Z,13.10
2018-07-28T03:05:37.697Z,11.20
2018-07-28T03:08:07.217Z,12.17
2018-07-28T03:10:35.941Z,11.37
2018-07-28T03:13:04.738Z,12.40
2018-07-28T03:15:36.106Z,15.40
2018-07-28T03:18:06.703Z,13.10
2018-07-28T03:20:35.463Z,13.77
2018-07-28T03:23:04.895Z,15.13
2018-07-28T03:25:33.626Z,13.70
2018-07-28T03:28:02.407Z,14.80
2018-07-28T03:30:31.129Z,15.30
2018-07-28T03:32:59.901Z,17.17
2018-07-28T03:35:28.638Z,12.93
2018-07-28T03:37:57.349Z,14.20
2018-07-28T03:40:26.101Z,13.63
2018-07-28T03:42:54.858Z,11.60
2018-07-28T03:45:23.645Z,11.27
2018-07-28T03:47:52.382Z,11.97
2018-07-28T03:50:21.191Z,12.97
2018-07-28T03:52:50.014Z,10.27
2018-07-28T03:55:18.789Z,10.40
2018-07-28T03:57:47.586Z,10.70
2018-07-28T04:00:16.375Z,9.60
2018-07-28T04:02:45.130Z,9.63
2018-07-28T04:05:13.940Z,9.33
2018-07-28T04:07:42.732Z,9.73
2018-07-28T04:10:11.533Z,10.93
2018-07-28T04:12:40.553Z,9.30
2018-07-28T04:15:11.824Z,9.30
2018-07-28T04:18:00.911Z,10.10
2018-07-28T04:20:29.659Z,8.27
2018-07-28T04:22:58.541Z,7.57
2018-07-28T04:25:27.330Z,7.53
2018-07-28T04:27:56.090Z,7.30
2018-07-28T04:30:24.925Z,7.60
2018-07-28T04:32:53.684Z,7.60
2018-07-28T04:35:22.423Z,8.03
2018-07-28T04:37:51.144Z,9.23
2018-07-28T04:40:19.896Z,7.73
2018-07-28T04:42:48.641Z,6.73
2018-07-28T04:45:17.372Z,7.47
2018-07-28T04:47:46.093Z,6.60
2018-07-28T04:50:14.830Z,7.80
2018-07-28T04:52:43.595Z,7.00
2018-07-28T04:55:13.467Z,5.87
2018-07-28T04:57:42.219Z,6.50
2018-07-28T05:00:10.925Z,5.90
2018-07-28T05:02:39.657Z,5.93
2018-07-28T05:05:08.407Z,5.70
2018-07-28T05:07:37.205Z,6.43
2018-07-28T05:10:05.919Z,7.17
2018-07-28T05:12:34.669Z,6.60
2018-07-28T05:15:03.415Z,6.43
2018-07-28T05:17:32.160Z,5.10
2018-07-28T05:20:00.928Z,4.57
2018-07-28T05:22:29.641Z,5.57
2018-07-28T05:24:58.380Z,4.40
2018-07-28T05:27:27.085Z,4.70
2018-07-28T05:29:55.794Z,4.90
2018-07-28T05:32:24.530Z,3.87
2018-07-28T05:34:53.239Z,6.30
2018-07-28T05:37:21.942Z,4.83
2018-07-28T05:39:50.645Z,10.50
2018-07-28T05:42:19.334Z,4.00
2018-07-28T05:44:48.087Z,9.53
2018-07-28T05:47:16.782Z,9.37
2018-07-28T05:49:45.470Z,7.33
2018-07-28T05:52:14.171Z,4.63
2018-07-28T05:54:42.873Z,5.53
2018-07-28T05:57:11.605Z,6.60
2018-07-28T05:59:40.313Z,5.50
2018-07-28T06:02:09.056Z,5.63
2018-07-28T06:04:37.762Z,5.97
2018-07-28T06:07:07.107Z,4.20
2018-07-28T06:09:35.873Z,7.40
2018-07-28T06:12:04.646Z,5.00
2018-07-28T06:14:33.388Z,9.00
2018-07-28T06:17:02.130Z,4.70
2018-07-28T06:19:30.869Z,5.53
2018-07-28T06:21:59.666Z,5.27
2018-07-28T06:24:28.390Z,6.17
2018-07-28T06:26:57.121Z,5.73
2018-07-28T06:29:25.918Z,6.47
2018-07-28T06:31:54.692Z,5.80
2018-07-28T06:34:23.453Z,6.10
2018-07-28T06:36:52.685Z,5.30
2018-07-28T06:39:21.400Z,5.57
2018-07-28T06:41:50.143Z,6.03
2018-07-28T06:44:18.866Z,5.60
2018-07-28T06:46:47.685Z,5.80
2018-07-28T06:49:16.429Z,6.20
2018-07-28T06:51:45.171Z,5.60
2018-07-28T06:54:13.948Z,6.40
2018-07-28T06:56:42.676Z,6.23
2018-07-28T06:59:11.538Z,7.77
2018-07-28T07:01:40.382Z,6.27
2018-07-28T07:04:09.129Z,7.00
2018-07-28T07:06:37.885Z,6.57
2018-07-28T07:09:09.432Z,5.87
2018-07-28T07:11:38.237Z,6.33
2018-07-28T07:14:07.035Z,5.80
2018-07-28T07:16:36.023Z,6.40
2018-07-28T07:19:04.758Z,6.10
2018-07-28T07:21:33.626Z,6.17
2018-07-28T07:24:02.435Z,5.83
2018-07-28T07:26:31.186Z,6.17
2018-07-28T07:28:59.918Z,6.53
2018-07-28T07:31:28.685Z,6.40
2018-07-28T07:33:57.444Z,5.90
2018-07-28T07:36:26.230Z,6.90
2018-07-28T07:38:54.970Z,6.37
2018-07-28T07:41:26.714Z,5.73
2018-07-28T07:43:55.558Z,5.53
2018-07-28T07:46:24.296Z,6.50
2018-07-28T07:48:53.010Z,5.83
2018-07-28T07:51:21.760Z,6.63
2018-07-28T07:53:50.530Z,5.90
2018-07-28T07:56:19.272Z,5.97
2018-07-28T07:58:47.987Z,5.63
2018-07-28T08:01:16.688Z,6.00
2018-07-28T08:03:45.383Z,6.57
2018-07-28T08:06:14.253Z,7.30
2018-07-28T08:08:43.060Z,6.00
2018-07-28T08:11:11.802Z,6.23
2018-07-28T08:13:41.054Z,5.43
2018-07-28T08:16:09.772Z,7.17
2018-07-28T08:18:38.661Z,6.13
2018-07-28T08:21:07.463Z,7.27
2018-07-28T08:23:36.170Z,5.97
2018-07-28T08:26:05.161Z,7.10
2018-07-28T08:28:34.095Z,6.30
2018-07-28T08:31:03.050Z,8.30
2018-07-28T08:33:31.957Z,5.93
2018-07-28T08:36:00.837Z,7.60
2018-07-28T08:38:29.660Z,5.60
2018-07-28T08:40:58.508Z,10.23
2018-07-28T08:43:27.319Z,9.97
2018-07-28T08:45:56.093Z,6.20
2018-07-28T08:48:24.925Z,8.37
2018-07-28T08:50:54.038Z,6.83
2018-07-28T08:53:23.517Z,6.17
2018-07-28T08:55:52.321Z,4.00
2018-07-28T08:58:21.374Z,5.00
2018-07-28T09:00:50.233Z,5.30
2018-07-28T09:03:19.278Z,5.00
2018-07-28T09:05:48.032Z,5.40
2018-07-28T09:08:16.981Z,4.80
2018-07-28T09:10:45.982Z,6.13
2018-07-28T09:13:14.997Z,4.43
2018-07-28T09:15:43.770Z,5.87
2018-07-28T09:18:12.564Z,4.70
2018-07-28T09:20:41.460Z,4.90
2018-07-28T09:23:17.549Z,4.93
2018-07-28T09:25:46.262Z,4.47
2018-07-28T09:28:15.046Z,16.47
2018-07-28T09:30:44.558Z,5.00
2018-07-28T09:33:13.335Z,5.33
2018-07-28T09:35:42.100Z,6.27
2018-07-28T09:38:10.965Z,6.20
2018-07-28T09:40:40.997Z,6.03
2018-07-28T09:43:10.541Z,6.20
2018-07-28T09:45:39.444Z,5.83
2018-07-28T09:48:08.674Z,5.90
2018-07-28T09:50:37.389Z,6.20
2018-07-28T09:53:06.124Z,6.37
2018-07-28T09:55:34.866Z,5.50
2018-07-28T09:58:03.585Z,6.10
2018-07-28T10:00:37.541Z,6.00
2018-07-28T10:03:06.943Z,5.57
2018-07-28T10:05:36.680Z,5.77
2018-07-28T10:08:05.367Z,5.03
2018-07-28T10:10:34.187Z,5.00
2018-07-28T10:13:02.916Z,4.83
2018-07-28T10:15:31.642Z,7.50
2018-07-28T10:18:00.356Z,7.03
2018-07-28T10:20:29.057Z,6.83
2018-07-28T10:22:57.868Z,6.60
2018-07-28T10:25:26.653Z,5.90
2018-07-28T10:27:55.353Z,5.97
2018-07-28T10:30:24.054Z,5.57
2018-07-28T10:32:52.778Z,6.37
2018-07-28T10:35:21.486Z,6.10
2018-07-28T10:37:50.214Z,5.37
2018-07-28T10:40:18.944Z,7.07
2018-07-28T10:42:47.705Z,6.20
2018-07-28T10:45:16.666Z,5.70
2018-07-28T10:47:45.386Z,6.90
2018-07-28T10:50:14.114Z,6.17
2018-07-28T10:52:42.825Z,6.43
2018-07-28T10:55:11.746Z,6.50
2018-07-28T10:57:40.494Z,9.80
2018-07-28T11:00:09.439Z,5.90
2018-07-28T11:02:38.154Z,5.93
2018-07-28T11:05:07.221Z,5.87
2018-07-28T11:07:35.937Z,5.23
2018-07-28T11:10:05.189Z,5.77
2018-07-28T11:12:33.941Z,5.40
2018-07-28T11:15:02.766Z,4.90
2018-07-28T11:17:31.489Z,4.12
2018-07-28T11:20:00.233Z,3.80
2018-07-28T11:22:28.960Z,4.45
2018-07-28T11:24:57.717Z,4.40
2018-07-28T11:27:26.486Z,5.20
2018-07-28T11:29:55.224Z,4.20
2018-07-28T11:32:34.964Z,4.50
2018-07-28T11:35:14.764Z,4.45
2018-07-28T11:38:03.675Z,4.80
2018-07-28T11:40:44.837Z,5.60
2018-07-28T11:43:24.970Z,5.33
2018-07-28T11:45:53.781Z,4.83
2018-07-28T11:48:22.536Z,5.83
2018-07-28T11:50:51.258Z,4.67
2018-07-28T11:53:20.036Z,4.85
2018-07-28T11:55:48.828Z,6.58
2018-07-28T11:58:17.684Z,6.20
2018-07-28T12:00:46.364Z,5.63
2018-07-28T12:03:15.105Z,7.03
2018-07-28T12:05:43.827Z,5.70
2018-07-28T12:08:12.646Z,6.87
2018-07-28T12:10:41.374Z,8.00
2018-07-28T12:13:10.116Z,6.20
2018-07-28T12:15:38.921Z,5.63
2018-07-28T12:18:07.821Z,6.00
2018-07-28T12:20:36.664Z,7.47
2018-07-28T12:23:05.441Z,7.77
2018-07-28T12:25:34.277Z,6.13
2018-07-28T12:28:03.074Z,7.10
2018-07-28T12:30:32.057Z,9.30
2018-07-28T12:33:00.881Z,7.70
2018-07-28T12:35:29.689Z,7.00
2018-07-28T12:37:58.537Z,6.40
2018-07-28T12:40:27.451Z,7.20
2018-07-28T12:42:56.334Z,7.73
2018-07-28T12:45:25.147Z,5.40
2018-07-28T12:47:53.952Z,5.37
2018-07-28T12:50:22.716Z,6.00
2018-07-28T12:52:51.470Z,4.97
2018-07-28T12:55:20.273Z,6.33
2018-07-28T12:57:55.624Z,7.10
2018-07-28T13:00:24.504Z,6.30
2018-07-28T13:02:53.389Z,5.60
2018-07-28T13:05:22.109Z,5.93
2018-07-28T13:07:50.905Z,6.47
2018-07-28T13:10:19.876Z,5.80
2018-07-28T13:12:48.533Z,5.93
2018-07-28T13:15:17.349Z,5.20
2018-07-28T13:17:46.169Z,6.20
2018-07-28T13:20:14.940Z,6.33
2018-07-28T13:22:43.789Z,6.70
2018-07-28T13:25:12.741Z,6.60
2018-07-28T13:27:41.518Z,5.37
2018-07-28T13:30:10.310Z,5.80
2018-07-28T13:32:39.085Z,5.57
2018-07-28T13:35:07.893Z,5.90
2018-07-28T13:37:36.729Z,5.37
2018-07-28T13:40:05.599Z,6.53
2018-07-28T13:42:34.426Z,7.00
2018-07-28T13:45:03.198Z,6.20
2018-07-28T13:47:31.976Z,4.97
2018-07-28T13:50:00.798Z,5.90
2018-07-28T13:52:29.571Z,5.17
2018-07-28T13:54:58.364Z,6.80
2018-07-28T13:57:27.152Z,6.30
2018-07-28T13:59:55.900Z,5.30
2018-07-28T14:02:24.663Z,5.67
2018-07-28T14:04:53.411Z,4.97
2018-07-28T14:07:22.144Z,5.47
2018-07-28T14:09:51.051Z,5.30
2018-07-28T14:12:19.855Z,7.00
2018-07-28T14:14:48.616Z,6.40
2018-07-28T14:17:17.365Z,6.83
2018-07-28T14:19:46.250Z,6.70
2018-07-28T14:22:14.990Z,5.80
2018-07-28T14:24:43.801Z,5.57
2018-07-28T14:27:12.555Z,6.40
2018-07-28T14:29:41.289Z,7.03
2018-07-28T14:32:10.026Z,7.10
2018-07-28T14:34:38.725Z,6.20
2018-07-28T14:37:07.473Z,7.27
2018-07-28T14:39:36.233Z,7.57
2018-07-28T14:42:04.977Z,6.13
2018-07-28T14:44:33.762Z,5.60
2018-07-28T14:47:02.710Z,5.70
2018-07-28T14:49:31.462Z,7.07
2018-07-28T14:52:00.270Z,7.07
2018-07-28T14:54:29.099Z,6.50
2018-07-28T14:56:57.886Z,7.80
2018-07-28T14:59:26.696Z,7.00
2018-07-28T15:01:55.499Z,8.60
2018-07-28T15:04:24.334Z,7.93
2018-07-28T15:06:53.078Z,7.73
2018-07-28T15:09:21.823Z,8.13
2018-07-28T15:11:50.565Z,8.13
2018-07-28T15:14:19.325Z,8.40
2018-07-28T15:16:48.077Z,6.50
2018-07-28T15:19:16.821Z,7.27
2018-07-28T15:21:45.576Z,6.07
2018-07-28T15:24:14.319Z,6.93
2018-07-28T15:26:43.081Z,9.03
2018-07-28T15:29:11.830Z,6.93
2018-07-28T15:31:40.575Z,7.43
2018-07-28T15:34:09.435Z,6.70
2018-07-28T15:36:38.182Z,6.77
2018-07-28T15:39:08.761Z,7.93
2018-07-28T15:41:37.541Z,6.00
2018-07-28T15:44:06.476Z,6.97
2018-07-28T15:46:35.237Z,6.77
2018-07-28T15:49:04.292Z,7.20
2018-07-28T15:51:33.092Z,7.30
2018-07-28T15:54:01.930Z,7.13
2018-07-28T15:56:30.803Z,6.70
2018-07-28T15:59:00.390Z,7.50
2018-07-28T16:01:29.113Z,7.37
2018-07-28T16:03:57.957Z,7.13
2018-07-28T16:06:26.726Z,7.40
2018-07-28T16:08:55.984Z,8.50
2018-07-28T16:11:24.984Z,7.90
2018-07-28T16:13:53.785Z,7.43
2018-07-28T16:16:22.588Z,7.83
2018-07-28T16:18:51.367Z,7.63
2018-07-28T16:21:20.138Z,8.37
2018-07-28T16:23:48.902Z,7.50
2018-07-28T16:26:17.650Z,9.50
2018-07-28T16:28:46.442Z,9.03
2018-07-28T16:31:15.212Z,8.60
2018-07-28T16:33:43.946Z,7.63
2018-07-28T16:36:12.736Z,7.67
2018-07-28T16:38:41.505Z,8.63
2018-07-28T16:41:10.282Z,7.53
2018-07-28T16:43:39.133Z,8.87
2018-07-28T16:46:08.202Z,16.30
2018-07-28T16:48:36.991Z,9.13
2018-07-28T16:51:05.840Z,10.00
2018-07-28T16:53:34.658Z,8.37
2018-07-28T16:56:03.507Z,8.30
2018-07-28T16:58:32.323Z,7.60
2018-07-28T17:01:01.129Z,9.07
2018-07-28T17:03:29.916Z,9.50
2018-07-28T17:05:59.096Z,8.73
2018-07-28T17:08:27.912Z,7.30
2018-07-28T17:10:56.710Z,7.83
2018-07-28T17:13:25.430Z,8.47
2018-07-28T17:15:54.253Z,8.77
2018-07-28T17:18:23.722Z,7.97
2018-07-28T17:20:52.980Z,7.87
2018-07-28T17:23:21.720Z,8.60
2018-07-28T17:25:50.473Z,9.07
2018-07-28T17:28:19.243Z,9.13
2018-07-28T17:30:48.078Z,8.73
2018-07-28T17:33:16.894Z,9.40
2018-07-28T17:35:45.722Z,10.07
2018-07-28T17:38:14.493Z,10.80
2018-07-28T17:40:43.326Z,9.10
2018-07-28T17:43:12.150Z,11.20
2018-07-28T17:45:40.976Z,9.20
2018-07-28T17:48:09.861Z,10.90
2018-07-28T17:50:38.616Z,9.63
2018-07-28T17:53:07.453Z,11.10
2018-07-28T17:55:36.718Z,9.70
2018-07-28T17:58:05.558Z,13.00
2018-07-28T18:00:34.374Z,10.27
2018-07-28T18:03:03.133Z,9.13
2018-07-28T18:05:31.866Z,11.73
2018-07-28T18:08:00.643Z,10.80
2018-07-28T18:10:29.650Z,10.73
2018-07-28T18:12:58.445Z,9.83
2018-07-28T18:15:27.204Z,10.93
2018-07-28T18:17:55.957Z,9.93
2018-07-28T18:20:24.714Z,11.13
2018-07-28T18:22:53.522Z,8.43
2018-07-28T18:25:22.285Z,11.03
2018-07-28T18:27:51.061Z,9.67
2018-07-28T18:30:19.840Z,10.33
2018-07-28T18:32:48.616Z,10.40
2018-07-28T18:35:17.422Z,11.90
2018-07-28T18:37:46.219Z,12.40
2018-07-28T18:40:15.007Z,11.20
2018-07-28T18:42:43.809Z,14.43
2018-07-28T18:45:12.560Z,12.47
2018-07-28T18:47:41.440Z,15.40
2018-07-28T18:50:10.280Z,12.10
2018-07-28T18:52:39.081Z,14.50
2018-07-28T18:55:07.987Z,13.30
2018-07-28T18:57:36.795Z,13.80
2018-07-28T19:00:07.829Z,12.60
2018-07-28T19:02:36.640Z,13.00
2018-07-28T19:05:06.309Z,12.70
2018-07-28T19:07:35.132Z,11.57
2018-07-28T19:10:03.908Z,11.50
2018-07-28T19:12:37.880Z,11.00
2018-07-28T19:15:06.660Z,12.50
2018-07-28T19:17:40.655Z,11.70
2018-07-28T19:20:09.573Z,13.23
2018-07-28T19:22:43.457Z,12.13
2018-07-28T19:25:12.270Z,13.33
2018-07-28T19:27:44.403Z,12.00
2018-07-28T19:30:13.209Z,13.03
2018-07-28T19:32:41.999Z,12.40
2018-07-28T19:35:10.781Z,13.67
2018-07-28T19:37:39.580Z,13.80
2018-07-28T19:40:08.369Z,12.70
2018-07-28T19:42:42.388Z,14.50
2018-07-28T19:45:11.247Z,12.70
2018-07-28T19:47:40.074Z,12.00
2018-07-28T19:50:08.882Z,12.10
2018-07-28T19:52:37.668Z,12.00
2018-07-28T19:55:06.483Z,12.73
2018-07-28T19:57:35.262Z,12.27
2018-07-28T20:00:04.031Z,12.27
2018-07-28T20:02:32.820Z,12.60
2018-07-28T20:05:08.139Z,12.97
2018-07-28T20:07:36.881Z,14.00
2018-07-28T20:10:05.652Z,14.10
2018-07-28T20:12:34.406Z,13.53
2018-07-28T20:15:03.195Z,14.60
2018-07-28T20:17:31.986Z,14.20
2018-07-28T20:20:00.782Z,15.80
2018-07-28T20:22:29.604Z,14.67
2018-07-28T20:24:58.408Z,13.53
2018-07-28T20:27:27.200Z,13.43
2018-07-28T20:30:02.425Z,14.47
2018-07-28T20:32:31.231Z,15.00
2018-07-28T20:35:02.549Z,14.53
2018-07-28T20:37:34.537Z,13.43
2018-07-28T20:40:07.096Z,15.53
2018-07-28T20:42:39.398Z,14.07
2018-07-28T20:45:11.648Z,14.90
2018-07-28T20:47:43.579Z,14.27
2018-07-28T20:50:15.731Z,14.63
2018-07-28T20:52:48.067Z,13.50
2018-07-28T20:55:19.590Z,15.10
2018-07-28T20:57:51.283Z,14.43
2018-07-28T21:00:23.293Z,14.70
2018-07-28T21:02:55.235Z,16.10
2018-07-28T21:05:26.660Z,16.30
2018-07-28T21:07:58.756Z,16.60
2018-07-28T21:10:30.589Z,16.50
2018-07-28T21:13:02.531Z,17.83
2018-07-28T21:15:34.801Z,18.90
2018-07-28T21:18:06.280Z,19.47
2018-07-28T21:20:38.976Z,17.70
2018-07-28T21:23:11.522Z,18.07
2018-07-28T21:32:31.057Z,18.33
2018-07-28T21:35:04.740Z,17.00
2018-07-28T21:37:40.033Z,18.33
2018-07-28T21:40:11.323Z,16.80
2018-07-28T21:42:44.415Z,18.03
2018-07-28T21:45:16.379Z,15.77
2018-07-28T21:47:48.320Z,15.60
2018-07-28T21:50:19.862Z,15.40
2018-07-28T21:52:53.055Z,18.60
2018-07-28T21:55:21.936Z,18.43
2018-07-28T21:57:50.801Z,18.30
2018-07-28T22:00:19.577Z,16.20
2018-07-28T22:02:49.838Z,19.17
2018-07-28T22:05:20.539Z,16.57
2018-07-28T22:07:50.523Z,15.60
2018-07-28T22:10:19.248Z,17.10
2018-07-28T22:12:47.973Z,15.33
2018-07-28T22:15:16.749Z,15.57
2018-07-28T22:17:45.515Z,15.40
2018-07-28T22:20:14.286Z,14.30
2018-07-28T22:22:43.025Z,16.83
2018-07-28T22:25:11.765Z,16.93
2018-07-28T22:27:40.544Z,20.73
2018-07-28T22:30:09.303Z,20.87
2018-07-28T22:32:38.042Z,16.50
2018-07-28T22:35:06.792Z,16.97
2018-07-28T22:37:35.615Z,18.70
2018-07-28T22:40:04.414Z,19.33
2018-07-28T22:42:52.144Z,18.80
2018-07-28T22:45:21.421Z,20.03
2018-07-28T22:47:50.150Z,18.47
2018-07-28T22:50:18.981Z,19.83
2018-07-28T22:52:47.753Z,19.50
2018-07-28T22:55:16.508Z,22.27
2018-07-28T22:57:45.246Z,23.57
2018-07-28T23:00:14.007Z,23.30
2018-07-28T23:02:42.771Z,25.03
2018-07-28T23:05:11.521Z,24.50
2018-07-28T23:07:40.312Z,22.27
2018-07-28T23:10:09.070Z,23.23
2018-07-28T23:12:37.812Z,22.90
2018-07-28T23:15:06.717Z,23.17
2018-07-28T23:17:35.445Z,24.13
2018-07-28T23:20:04.766Z,22.97
2018-07-28T23:22:33.492Z,21.60
2018-07-28T23:25:02.274Z,21.37
2018-07-28T23:27:31.021Z,18.90
2018-07-28T23:29:59.778Z,16.60
2018-07-28T23:32:28.553Z,19.37
2018-07-28T23:34:57.286Z,17.20
2018-07-28T23:37:26.035Z,14.50
2018-07-28T23:39:54.862Z,16.57
2018-07-28T23:42:23.613Z,17.93
2018-07-28T23:44:52.387Z,19.43
2018-07-28T23:47:21.149Z,19.37
2018-07-28T23:49:49.912Z,19.43
2018-07-28T23:52:18.649Z,16.73
2018-07-28T23:54:47.398Z,17.50
2018-07-28T23:57:16.176Z,19.80
2018-07-28T23:59:45.002Z,19.73
